Time;durP1;ratioP1;P1;durP2;ratioP2;P2;SDS_P1;SDS_P2;PMS_P1;PMS_P2;Temp;Humidity;BMP_temperature;BMP_pressure;BME280_temperature;BME280_humidity;BME280_pressure;Samples;Min_cycle;Max_cycle;Signal;HPM_P1;HPM_P2
2022/11/01 00:02:18;;;;;;;2.05;1.45;;;;;;;0.93;70.96;98888.81;5054177;28;20549;-75
2022/11/01 00:04:44;;;;;;;1.08;0.98;;;;;;;0.93;71.42;98890.63;5021280;28;20049;-75
2022/11/01 00:07:10;;;;;;;4.15;1.80;;;;;;;0.94;71.79;98900.06;5014544;28;20044;-75
2022/11/01 00:09:37;;;;;;;3.47;1.73;;;;;;;0.97;71.98;98902.28;5014472;28;20037;-76
2022/11/01 00:12:03;;;;;;;1.33;0.93;;;;;;;0.97;71.87;98903.13;5001982;28;20085;-75
2022/11/01 00:14:29;;;;;;;1.73;0.90;;;;;;;0.96;72.33;98903.31;5021177;28;20136;-77
2022/11/01 00:16:55;;;;;;;2.00;1.15;;;;;;;0.95;71.37;98902.50;5017640;28;20135;-76
2022/11/01 00:19:20;;;;;;;1.55;1.10;;;;;;;0.96;71.79;98911.94;5017392;28;20055;-77
2022/11/01 00:21:47;;;;;;;1.20;0.90;;;;;;;0.90;71.67;98908.25;5033662;28;20036;-75
2022/11/01 00:24:13;;;;;;;1.52;1.25;;;;;;;0.85;72.32;98897.59;5071437;28;20052;-75
2022/11/01 00:26:39;;;;;;;0.90;0.88;;;;;;;0.88;71.92;98912.88;5014893;28;20045;-75
2022/11/01 00:29:05;;;;;;;3.08;1.38;;;;;;;0.84;71.86;98919.44;5014240;28;20041;-75
2022/11/01 00:31:32;;;;;;;1.15;1.00;;;;;;;0.85;72.29;98918.47;5025908;28;20051;-75
2022/11/01 00:34:02;;;;;;;0.88;0.80;;;;;;;0.82;72.25;98916.22;5020641;28;20072;-76
2022/11/01 00:36:28;;;;;;;2.67;1.20;;;;;;;0.89;73.24;98918.91;5053586;28;20517;-76
2022/11/01 00:38:54;;;;;;;1.40;1.30;;;;;;;0.85;74.65;98918.47;5020491;28;20086;-77
2022/11/01 00:41:20;;;;;;;2.42;1.15;;;;;;;0.86;74.23;98924.50;5029927;28;20506;-76
2022/11/01 00:43:46;;;;;;;1.75;1.00;;;;;;;0.77;75.35;98921.19;5014100;28;20399;-76
2022/11/01 00:46:12;;;;;;;1.58;1.05;;;;;;;0.74;75.42;98937.22;5042820;28;20067;-76
2022/11/01 00:48:37;;;;;;;1.52;1.23;;;;;;;0.66;75.83;98919.88;5017507;28;20427;-75
2022/11/01 00:51:03;;;;;;;1.83;1.10;;;;;;;0.63;76.70;98922.84;5017041;28;20048;-75
2022/11/01 00:53:29;;;;;;;1.33;1.05;;;;;;;0.62;76.55;98921.25;5033946;28;20501;-76
2022/11/01 00:56:04;;;;;;;4.13;1.30;;;;;;;0.67;76.71;98918.88;5049870;28;20056;-77
2022/11/01 00:58:30;;;;;;;4.43;1.38;;;;;;;0.75;76.88;98922.38;5051861;28;20048;-76
2022/11/01 01:00:56;;;;;;;1.33;1.23;;;;;;;0.76;76.24;98921.38;5017142;28;20039;-78
2022/11/01 01:03:22;;;;;;;1.65;1.10;;;;;;;0.75;76.60;98930.19;5017727;28;20416;-76
2022/11/01 01:05:52;;;;;;;3.53;1.40;;;;;;;0.73;75.92;98922.53;5018606;28;20059;-75
2022/11/01 01:08:19;;;;;;;3.00;1.92;;;;;;;0.81;76.06;98927.66;5018073;28;20033;-76
2022/11/01 01:10:45;;;;;;;3.78;1.63;;;;;;;0.75;75.69;98923.19;5034561;28;20075;-76
2022/11/01 01:13:11;;;;;;;2.78;1.50;;;;;;;0.68;76.15;98930.94;5034239;28;20072;-75
2022/11/01 01:15:38;;;;;;;3.13;1.42;;;;;;;0.67;76.27;98925.88;5009666;28;20073;-77
2022/11/01 01:18:04;;;;;;;1.98;1.50;;;;;;;0.63;76.51;98929.88;5054634;28;20045;-76
2022/11/01 01:20:30;;;;;;;1.75;1.63;;;;;;;0.72;76.15;98925.34;5071544;28;20048;-76
2022/11/01 01:22:56;;;;;;;1.40;1.30;;;;;;;0.80;75.14;98930.47;5020506;28;20036;-75
2022/11/01 01:25:22;;;;;;;1.60;1.30;;;;;;;0.77;74.88;98923.00;5029788;28;20056;-75
2022/11/01 01:27:48;;;;;;;2.25;1.20;;;;;;;0.72;74.39;98923.53;4997150;28;20499;-75
2022/11/01 01:30:14;;;;;;;1.30;1.17;;;;;;;0.63;73.94;98922.84;5017068;28;20055;-75
2022/11/01 01:32:40;;;;;;;1.50;1.30;;;;;;;0.73;73.34;98921.75;5033244;28;20064;-75
2022/11/01 01:35:07;;;;;;;0.98;0.88;;;;;;;0.63;72.32;98924.66;5032982;28;20045;-75
2022/11/01 01:37:33;;;;;;;1.33;1.08;;;;;;;0.63;72.40;98920.25;5033291;28;20037;-75
2022/11/01 01:39:58;;;;;;;1.45;1.20;;;;;;;0.58;71.95;98912.16;5032359;28;20072;-75
2022/11/01 01:42:29;;;;;;;1.17;0.90;;;;;;;0.58;72.18;98927.81;5051149;28;20041;-76
2022/11/01 01:45:14;;;;;;;1.10;0.95;;;;;;;0.57;71.44;98939.25;5049702;28;20422;-75
2022/11/01 01:47:43;;;;;;;1.73;0.88;;;;;;;0.39;71.31;98910.16;5033638;28;20053;-76
2022/11/01 01:50:26;;;;;;;1.05;0.95;;;;;;;0.51;71.61;98942.59;5016278;28;20061;-75
2022/11/01 01:52:54;;;;;;;1.02;0.90;;;;;;;0.55;71.53;98940.41;5033177;28;20568;-75
2022/11/01 01:55:31;;;;;;;1.15;0.70;;;;;;;0.52;71.35;98951.22;5036195;28;20073;-76
2022/11/01 01:57:58;;;;;;;0.90;0.65;;;;;;;0.49;71.27;98957.59;5003782;28;20494;-76
2022/11/01 02:00:24;;;;;;;1.25;0.90;;;;;;;0.52;70.78;98938.16;5041179;28;20059;-75
2022/11/01 02:02:50;;;;;;;1.73;0.95;;;;;;;0.55;70.89;98945.63;5056566;28;20066;-74
2022/11/01 02:05:36;;;;;;;2.63;0.90;;;;;;;0.59;71.28;98934.66;5074391;28;20040;-74
2022/11/01 02:08:02;;;;;;;2.08;1.10;;;;;;;0.54;70.91;98942.22;5023583;28;20044;-74
2022/11/01 02:10:29;;;;;;;0.73;0.73;;;;;;;0.49;70.19;98926.31;5039405;28;20048;-74
2022/11/01 02:12:56;;;;;;;1.33;0.80;;;;;;;0.57;71.37;98941.84;5074331;28;20036;-74
2022/11/01 02:15:29;;;;;;;2.10;1.05;;;;;;;0.48;71.69;98942.94;5072668;28;20090;-74
2022/11/01 02:18:22;;;;;;;3.90;1.40;;;;;;;0.52;72.70;98943.38;5031778;28;20048;-75
2022/11/01 02:20:57;;;;;;;3.08;1.27;;;;;;;0.63;72.81;98948.13;5056761;28;20051;-75
2022/11/01 02:23:29;;;;;;;1.20;0.93;;;;;;;0.61;72.80;98950.09;5056622;28;20066;-75
2022/11/01 02:26:18;;;;;;;1.10;1.00;;;;;;;0.60;73.03;98946.69;5064403;28;20469;-75
2022/11/01 02:28:54;;;;;;;1.75;1.13;;;;;;;0.57;73.44;98951.47;5039767;28;20131;-75
2022/11/01 02:31:38;;;;;;;2.15;1.10;;;;;;;0.57;72.80;98960.09;5055629;28;20051;-74
2022/11/01 02:34:19;;;;;;;1.20;0.95;;;;;;;0.61;73.20;98956.13;5055888;28;20517;-73
2022/11/01 02:36:47;;;;;;;2.03;1.20;;;;;;;0.60;73.44;98961.53;5055497;28;20109;-74
2022/11/01 02:39:21;;;;;;;0.82;0.80;;;;;;;0.59;73.39;98959.91;5073868;28;20044;-74
2022/11/01 02:41:55;;;;;;;1.25;1.08;;;;;;;0.53;72.60;98966.69;5038708;28;20052;-75
2022/11/01 02:44:25;;;;;;;3.10;1.10;;;;;;;0.57;72.90;98977.56;5055843;28;20131;-76
2022/11/01 02:47:00;;;;;;;;;;;;;;;0.59;72.35;98968.56;5055963;28;20049;-74
2022/11/01 02:49:28;;;;;;;0.93;0.90;;;;;;;0.52;71.71;98965.06;5040467;28;20380;-76
2022/11/01 02:51:54;;;;;;;1.20;1.10;;;;;;;0.53;72.55;98973.69;5038450;28;20421;-74
2022/11/01 02:55:00;;;;;;;5.40;1.10;;;;;;;0.59;72.97;98971.16;5038933;28;20040;-75
2022/11/01 02:57:26;;;;;;;1.95;1.20;;;;;;;0.61;72.81;98968.38;5055428;28;20040;-74
2022/11/01 02:59:52;;;;;;;1.90;1.10;;;;;;;0.45;72.50;98970.19;5054885;28;20524;-74
2022/11/01 03:02:38;;;;;;;3.55;1.27;;;;;;;0.56;71.74;98960.28;5038777;28;20078;-75
2022/11/01 03:05:15;;;;;;;1.73;1.10;;;;;;;0.55;71.99;98969.91;5040600;28;20421;-74
2022/11/01 03:07:44;;;;;;;2.40;1.08;;;;;;;0.58;71.74;98968.72;5073476;28;20075;-74
2022/11/01 03:10:10;;;;;;;1.45;1.20;;;;;;;0.58;71.51;98966.94;5005770;28;20097;-75
2022/11/01 03:12:48;;;;;;;1.00;0.70;;;;;;;0.65;71.59;98973.03;5055724;28;20041;-75
2022/11/01 03:15:25;;;;;;;2.90;1.48;;;;;;;0.73;71.39;98977.31;5038596;28;20060;-75
2022/11/01 03:18:04;;;;;;;2.70;1.55;;;;;;;0.67;71.10;98968.44;5039003;28;20489;-73
2022/11/01 03:20:46;;;;;;;3.63;1.60;;;;;;;0.81;70.68;98966.78;5054918;28;20044;-73
2022/11/01 03:23:22;;;;;;;2.95;1.70;;;;;;;0.82;70.55;98970.19;5040028;28;20044;-73
2022/11/01 03:25:54;;;;;;;4.93;1.70;;;;;;;0.85;69.73;98977.66;5072582;28;20044;-74
2022/11/01 03:28:24;;;;;;;3.10;1.60;;;;;;;0.77;69.50;98977.78;5055129;28;20132;-77
2022/11/01 03:30:56;;;;;;;2.50;1.33;;;;;;;0.88;69.96;98969.47;5037714;28;20047;-75
2022/11/01 03:33:23;;;;;;;2.42;1.40;;;;;;;0.83;69.89;98970.03;5038371;28;20028;-74
2022/11/01 03:35:51;;;;;;;2.30;1.58;;;;;;;0.86;68.92;98968.84;5054407;28;20044;-73
2022/11/01 03:38:20;;;;;;;1.95;1.30;;;;;;;0.83;69.30;98969.22;5038420;28;20486;-76
2022/11/01 03:40:52;;;;;;;1.77;1.25;;;;;;;0.82;68.81;98968.41;5037446;28;20052;-75
2022/11/01 03:43:20;;;;;;;3.13;1.70;;;;;;;0.50;69.44;98922.72;5038081;28;20041;-76
2022/11/01 03:45:46;;;;;;;2.25;1.38;;;;;;;0.70;69.13;98974.28;5054441;28;20056;-76
2022/11/01 03:48:12;;;;;;;3.22;1.60;;;;;;;0.78;68.89;98974.19;5054533;28;20055;-74
2022/11/01 03:50:39;;;;;;;3.55;1.63;;;;;;;0.78;69.08;98974.97;5037358;28;20049;-74
2022/11/01 03:53:05;;;;;;;2.72;1.65;;;;;;;0.72;69.00;98969.69;5037209;28;20047;-75
2022/11/01 03:55:31;;;;;;;3.83;2.10;;;;;;;0.75;69.98;98959.69;5053849;28;20102;-75
2022/11/01 03:57:58;;;;;;;4.18;2.10;;;;;;;0.79;69.09;98965.34;5054316;28;20040;-75
2022/11/01 04:00:31;;;;;;;1.70;1.30;;;;;;;0.83;68.75;98964.81;5053659;28;20080;-75
2022/11/01 04:02:57;;;;;;;2.83;1.52;;;;;;;0.77;69.08;98969.97;5037630;28;20109;-75
2022/11/01 04:05:25;;;;;;;2.63;1.60;;;;;;;0.79;68.78;98973.19;5037201;28;20052;-74
2022/11/01 04:07:51;;;;;;;2.25;1.77;;;;;;;0.75;68.84;98961.50;5037427;28;20041;-74
2022/11/01 04:10:18;;;;;;;2.53;1.35;;;;;;;0.73;68.96;98966.09;5037020;28;20047;-74
2022/11/01 04:12:45;;;;;;;2.85;1.50;;;;;;;0.76;68.71;98970.94;5037160;28;20044;-74
2022/11/01 04:21:09;;;;;;;3.15;1.50;;;;;;;0.68;69.29;98974.47;5052663;28;20048;-74
2022/11/01 04:23:35;;;;;;;1.83;1.40;;;;;;;0.70;69.36;98979.50;5053247;28;20452;-75
2022/11/01 04:26:03;;;;;;;2.10;1.20;;;;;;;0.70;69.06;98975.09;5071470;28;20036;-74
2022/11/01 04:28:29;;;;;;;2.08;1.40;;;;;;;0.74;69.08;98965.91;5037448;28;20048;-74
2022/11/01 04:30:55;;;;;;;2.15;1.50;;;;;;;0.71;69.55;98986.31;5053410;28;20045;-74
2022/11/01 04:33:21;;;;;;;4.05;1.70;;;;;;;0.76;69.09;98978.75;5036744;28;20040;-73
2022/11/01 04:35:47;;;;;;;1.40;1.23;;;;;;;0.73;69.60;98981.75;5053482;28;20059;-76
2022/11/01 04:38:13;;;;;;;2.65;1.30;;;;;;;0.81;68.91;98982.44;5036892;28;20265;-74
2022/11/01 04:40:40;;;;;;;2.17;1.60;;;;;;;0.87;68.96;98986.13;5053436;28;20050;-74
2022/11/01 04:43:05;;;;;;;2.50;1.33;;;;;;;0.75;69.48;98983.19;5053772;28;20040;-75
2022/11/01 04:45:32;;;;;;;2.33;1.38;;;;;;;0.73;69.82;98990.38;5071393;28;20390;-75
2022/11/01 04:48:05;;;;;;;5.28;1.65;;;;;;;0.78;69.74;98995.06;5053334;28;20036;-74
2022/11/01 04:50:33;;;;;;;2.03;1.35;;;;;;;0.71;69.40;98989.78;5030914;28;20125;-74
2022/11/01 04:52:59;;;;;;;2.13;1.30;;;;;;;0.75;69.63;98998.03;5049557;28;20041;-75
2022/11/01 04:55:25;;;;;;;1.17;1.10;;;;;;;0.69;69.54;98991.75;5031363;28;20190;-73
2022/11/01 04:57:51;;;;;;;1.58;1.25;;;;;;;0.72;70.10;98998.41;5017132;28;20056;-75
2022/11/01 05:00:17;;;;;;;1.95;1.45;;;;;;;0.73;69.81;98992.97;5050734;28;20045;-71
2022/11/01 05:02:43;;;;;;;3.53;1.50;;;;;;;0.75;70.25;98988.41;4997288;28;20086;-76
2022/11/01 05:05:09;;;;;;;3.38;1.75;;;;;;;0.82;69.75;98994.47;4995085;28;20189;-67
2022/11/01 05:07:35;;;;;;;7.20;1.83;;;;;;;0.79;70.26;99002.69;5033378;28;20037;-68
2022/11/01 05:10:01;;;;;;;1.92;1.27;;;;;;;0.78;70.05;98993.25;5032449;28;20049;-70
2022/11/01 05:12:29;;;;;;;4.07;1.70;;;;;;;0.81;70.41;98992.88;5033217;28;20048;-69
2022/11/01 05:14:54;;;;;;;1.55;1.30;;;;;;;0.76;70.46;98991.81;5016237;28;20052;-71
2022/11/01 05:17:20;;;;;;;2.33;1.50;;;;;;;0.92;70.72;98999.44;5033193;28;20059;-71
2022/11/01 05:19:46;;;;;;;1.88;1.40;;;;;;;1.08;69.92;98993.16;5016583;28;20044;-70
2022/11/01 05:22:12;;;;;;;3.17;1.40;;;;;;;1.02;69.75;99005.16;5032794;28;20500;-71
2022/11/01 05:24:38;;;;;;;3.08;1.40;;;;;;;0.95;69.24;99004.28;5050875;28;20051;-69
2022/11/01 05:27:04;;;;;;;1.67;1.40;;;;;;;0.99;69.66;99005.50;5050714;28;20048;-79
2022/11/01 05:29:31;;;;;;;3.47;1.90;;;;;;;1.04;69.28;98999.75;5037399;28;20045;-72
2022/11/01 05:31:58;;;;;;;3.45;1.55;;;;;;;0.97;70.15;99012.75;5054868;28;20048;-79
2022/11/01 05:34:24;;;;;;;1.77;1.40;;;;;;;0.90;70.00;99012.66;5038592;28;20052;-78
2022/11/01 05:36:50;;;;;;;2.65;1.30;;;;;;;0.95;70.19;99001.66;5037195;28;20395;-79
2022/11/01 05:39:16;;;;;;;3.13;1.60;;;;;;;0.98;69.92;98996.06;5036942;28;20055;-79
2022/11/01 05:41:42;;;;;;;2.90;1.75;;;;;;;1.04;70.18;98994.53;5036526;28;20048;-80
2022/11/01 05:44:08;;;;;;;1.92;1.38;;;;;;;1.09;69.82;99007.84;5055292;28;20051;-79
2022/11/01 05:46:34;;;;;;;2.53;1.70;;;;;;;1.14;69.79;99008.88;5003990;28;20045;-77
2022/11/01 05:49:00;;;;;;;2.08;1.35;;;;;;;1.09;69.75;99021.69;5036987;28;20059;-77
2022/11/01 05:51:26;;;;;;;3.70;1.65;;;;;;;1.06;69.41;99014.25;5019995;28;20418;-78
2022/11/01 05:53:53;;;;;;;2.78;1.48;;;;;;;1.11;69.85;99011.88;5036676;28;20047;-80
2022/11/01 05:56:20;;;;;;;1.40;1.20;;;;;;;1.12;69.91;99008.28;5036240;28;20060;-80
2022/11/01 05:58:46;;;;;;;6.47;2.08;;;;;;;1.11;69.30;99011.88;5036665;28;20502;-76
2022/11/01 06:01:13;;;;;;;1.95;1.10;;;;;;;1.11;69.37;99024.09;5027681;28;20045;-77
2022/11/01 06:03:38;;;;;;;1.42;1.33;;;;;;;1.04;69.56;99031.06;5018163;28;20033;-76
2022/11/01 06:06:05;;;;;;;5.55;1.40;;;;;;;0.98;69.20;99027.41;5033916;28;20119;-77
2022/11/01 06:08:33;;;;;;;1.77;1.17;;;;;;;0.89;69.86;99033.72;5000729;28;20046;-77
2022/11/01 06:11:02;;;;;;;3.42;1.40;;;;;;;1.02;69.81;99035.66;4999891;28;20045;-78
2022/11/01 06:13:28;;;;;;;3.65;1.35;;;;;;;1.12;69.04;99039.59;5050304;28;20135;-78
2022/11/01 06:16:03;;;;;;;2.80;1.30;;;;;;;1.21;68.67;99029.06;4997753;28;20033;-77
2022/11/01 06:18:29;;;;;;;3.95;1.10;;;;;;;1.12;69.43;99025.75;5031558;28;20044;-77
2022/11/01 06:20:56;;;;;;;1.23;1.00;;;;;;;1.17;68.93;99020.75;4997815;28;20521;-77
2022/11/01 06:23:23;;;;;;;3.60;1.33;;;;;;;1.32;68.85;99026.75;5014393;28;20036;-78
2022/11/01 06:25:57;;;;;;;1.98;1.40;;;;;;;1.29;68.46;99031.53;4981124;28;20039;-78
2022/11/01 06:28:24;;;;;;;4.18;1.30;;;;;;;1.24;69.38;99039.94;5058647;28;20049;-78
2022/11/01 06:30:51;;;;;;;1.50;1.27;;;;;;;1.25;68.87;99033.69;5034413;28;20040;-79
2022/11/01 06:33:17;;;;;;;4.20;2.08;;;;;;;1.28;69.05;99029.91;5054167;28;20548;-78
2022/11/01 06:35:46;;;;;;;4.88;2.78;;;;;;;1.36;68.70;99032.41;5036271;28;20041;-77
2022/11/01 06:38:12;;;;;;;1.67;1.40;;;;;;;1.40;68.61;99025.81;5053047;28;20036;-78
2022/11/01 06:40:38;;;;;;;2.30;1.30;;;;;;;1.40;68.37;99035.44;5036884;28;20428;-77
2022/11/01 06:43:06;;;;;;;2.78;2.10;;;;;;;1.50;68.22;99033.31;5036521;28;20409;-77
2022/11/01 06:45:33;;;;;;;1.55;1.30;;;;;;;1.46;68.35;99029.47;5023024;28;20041;-77
2022/11/01 06:47:59;;;;;;;2.13;1.27;;;;;;;1.43;68.18;99041.09;5025538;28;20048;-75
2022/11/01 06:50:26;;;;;;;3.10;1.20;;;;;;;1.49;67.53;99042.97;5052469;28;20048;-76
2022/11/01 06:52:55;;;;;;;1.60;1.20;;;;;;;1.64;67.38;99034.25;5035383;28;20090;-71
2022/11/01 06:55:21;;;;;;;2.05;1.27;;;;;;;1.50;67.73;99034.16;5003997;28;20048;-72
2022/11/01 06:58:02;;;;;;;2.13;1.27;;;;;;;1.53;68.09;99046.84;5051579;28;20032;-72
2022/11/01 07:00:29;;;;;;;2.85;1.33;;;;;;;1.55;67.72;99044.03;5018375;28;20040;-72
2022/11/01 07:03:05;;;;;;;5.35;1.33;;;;;;;1.62;67.75;99060.59;5052759;28;20467;-70
2022/11/01 07:05:33;;;;;;;1.10;1.00;;;;;;;1.50;68.22;99041.16;5035773;28;20053;-78
2022/11/01 07:08:00;;;;;;;2.08;1.10;;;;;;;1.69;68.02;99056.22;5018160;28;20040;-75
2022/11/01 07:10:27;;;;;;;1.08;1.00;;;;;;;1.63;67.74;99046.50;5035593;28;20071;-71
2022/11/01 07:12:58;;;;;;;3.60;1.65;;;;;;;1.62;67.50;99065.81;5051023;28;20074;-72
2022/11/01 07:15:23;;;;;;;4.40;1.60;;;;;;;1.62;67.60;99051.91;5050014;28;20052;-72
2022/11/01 07:17:50;;;;;;;1.42;1.15;;;;;;;1.72;67.51;99044.56;5033591;28;20077;-72
2022/11/01 07:20:15;;;;;;;3.50;1.50;;;;;;;1.70;67.54;99049.19;5034470;28;20447;-72
2022/11/01 07:22:41;;;;;;;1.92;1.60;;;;;;;1.84;67.08;99052.72;5035741;28;20100;-71
2022/11/01 07:25:09;;;;;;;2.45;1.30;;;;;;;1.90;67.07;99055.38;5019270;28;20075;-72
2022/11/01 07:27:35;;;;;;;3.60;1.63;;;;;;;1.93;67.03;99054.19;5050311;28;20120;-72
2022/11/01 07:30:03;;;;;;;2.42;1.50;;;;;;;1.98;66.84;99057.06;5015284;28;20481;-72
2022/11/01 07:32:29;;;;;;;1.55;1.35;;;;;;;1.82;67.47;99055.50;5000263;28;20044;-73
2022/11/01 07:34:54;;;;;;;4.80;1.38;;;;;;;1.94;67.53;99059.25;5035491;28;20064;-73
2022/11/01 07:37:20;;;;;;;3.03;1.88;;;;;;;2.12;66.92;99052.72;5070224;28;20086;-72
2022/11/01 07:39:46;;;;;;;2.75;1.90;;;;;;;2.13;67.27;99057.75;5034015;28;20086;-70
2022/11/01 07:42:15;;;;;;;4.20;2.35;;;;;;;2.12;66.31;99057.94;5066694;28;20040;-75
2022/11/01 07:44:44;;;;;;;5.07;2.55;;;;;;;2.02;66.36;99053.84;5003648;28;20041;-72
2022/11/01 07:47:10;;;;;;;6.05;2.30;;;;;;;1.92;65.80;99063.03;5014347;28;20033;-73
2022/11/01 07:49:35;;;;;;;2.67;1.48;;;;;;;1.90;66.22;99058.00;5032048;28;20037;-76
2022/11/01 07:52:03;;;;;;;1.58;1.10;;;;;;;1.82;66.13;99071.19;4981726;28;20418;-75
2022/11/01 07:54:30;;;;;;;2.50;1.15;;;;;;;1.76;66.82;99069.31;5011774;28;20047;-74
2022/11/01 07:56:56;;;;;;;0.90;0.90;;;;;;;1.63;66.11;99049.13;5034664;28;20048;-73
2022/11/01 07:59:23;;;;;;;2.72;1.27;;;;;;;1.75;66.88;99072.94;5052920;28;20412;-75
2022/11/01 08:01:49;;;;;;;1.42;1.20;;;;;;;1.67;66.96;99060.81;5030776;28;20048;-71
2022/11/01 08:04:15;;;;;;;3.30;1.58;;;;;;;1.68;67.69;99069.47;4994428;28;20097;-73
2022/11/01 08:06:41;;;;;;;2.90;1.58;;;;;;;1.88;67.04;99059.97;5051721;28;20052;-71
2022/11/01 08:09:07;;;;;;;2.85;1.50;;;;;;;1.97;66.75;99063.25;5068660;28;20079;-76
2022/11/01 08:11:32;;;;;;;3.65;1.98;;;;;;;2.08;66.76;99067.16;5034428;28;20135;-74
2022/11/01 08:13:59;;;;;;;5.70;1.90;;;;;;;2.01;66.04;99070.53;5013731;28;20041;-74
2022/11/01 08:16:25;;;;;;;5.10;1.67;;;;;;;2.03;66.30;99055.50;5047134;28;20118;-76
2022/11/01 08:18:51;;;;;;;4.88;2.22;;;;;;;2.20;65.88;99052.56;5015305;28;20048;-71
2022/11/01 08:21:17;;;;;;;4.43;2.22;;;;;;;2.14;64.99;99054.13;5010372;28;20406;-71
2022/11/01 08:23:44;;;;;;;5.22;3.15;;;;;;;2.11;65.44;99061.56;5016400;28;20083;-69
2022/11/01 08:26:10;;;;;;;3.42;1.65;;;;;;;2.22;64.98;99069.69;5047031;28;20044;-73
2022/11/01 08:28:36;;;;;;;2.70;1.70;;;;;;;2.24;65.11;99075.53;5048722;28;20351;-66
2022/11/01 08:31:05;;;;;;;1.95;1.67;;;;;;;2.30;64.76;99073.97;5050667;28;20071;-68
2022/11/01 08:33:31;;;;;;;2.47;1.55;;;;;;;2.32;64.49;99069.34;5015589;28;20045;-68
2022/11/01 08:35:57;;;;;;;2.47;1.30;;;;;;;2.33;64.32;99070.19;5030415;28;20510;-66
2022/11/01 08:38:23;;;;;;;2.33;1.27;;;;;;;2.35;64.61;99068.97;5049267;28;20051;-68
2022/11/01 08:40:48;;;;;;;2.45;1.38;;;;;;;2.44;64.58;99064.38;5048913;28;20053;-69
2022/11/01 08:43:14;;;;;;;4.93;1.60;;;;;;;2.49;64.80;99062.81;5030615;28;20251;-68
2022/11/01 08:45:40;;;;;;;6.30;1.58;;;;;;;2.66;63.38;99065.13;5031375;28;20174;-69
2022/11/01 08:48:06;;;;;;;3.55;1.40;;;;;;;2.66;63.84;99065.13;5031466;28;20075;-68
2022/11/01 08:50:33;;;;;;;7.47;1.70;;;;;;;2.79;63.91;99062.53;5013240;28;20044;-69
2022/11/01 08:53:03;;;;;;;4.47;3.28;;;;;;;2.75;63.54;99066.56;5048799;28;20555;-68
2022/11/01 08:55:29;;;;;;;4.07;2.58;;;;;;;2.65;63.41;99058.28;4979928;28;20114;-68
2022/11/01 08:57:57;;;;;;;2.05;1.50;;;;;;;2.62;62.87;99064.72;5012930;28;20033;-69
2022/11/01 09:00:23;;;;;;;3.00;1.50;;;;;;;2.52;63.46;99068.66;5031096;28;20106;-68
2022/11/01 09:02:49;;;;;;;6.53;1.77;;;;;;;2.48;64.69;99057.78;5049250;28;20045;-68
2022/11/01 09:05:15;;;;;;;7.88;3.13;;;;;;;2.68;63.73;99060.50;5029252;28;20615;-68
2022/11/01 09:07:40;;;;;;;7.38;2.72;;;;;;;2.66;63.56;99059.88;5048760;28;20131;-66
2022/11/01 09:10:08;;;;;;;4.50;2.10;;;;;;;2.64;63.64;99065.28;5013723;28;20498;-72
2022/11/01 09:12:34;;;;;;;3.58;1.80;;;;;;;2.54;62.99;99072.72;5048666;28;20045;-73
2022/11/01 09:15:00;;;;;;;3.58;1.45;;;;;;;2.49;62.55;99072.47;5029284;28;20048;-71
2022/11/01 09:17:25;;;;;;;5.68;1.92;;;;;;;2.55;63.05;99071.69;5045605;28;20056;-71
2022/11/01 09:19:53;;;;;;;3.83;2.22;;;;;;;2.64;63.29;99072.34;5042957;28;20521;-72
2022/11/01 09:22:19;;;;;;;5.65;2.35;;;;;;;2.64;63.14;99072.34;5030739;28;20136;-72
2022/11/01 09:24:46;;;;;;;6.13;2.15;;;;;;;2.63;63.03;99076.78;5015745;28;20569;-74
2022/11/01 09:27:11;;;;;;;9.52;3.20;;;;;;;2.51;63.11;99078.31;5032453;28;20037;-68
2022/11/01 09:29:37;;;;;;;7.50;2.83;;;;;;;2.46;63.18;99068.44;5043229;28;20041;-76
2022/11/01 09:32:05;;;;;;;7.10;3.03;;;;;;;2.46;63.46;99073.66;5048980;28;20166;-74
2022/11/01 09:34:31;;;;;;;4.03;1.98;;;;;;;2.31;63.23;99069.53;4997971;28;20098;-71
2022/11/01 09:36:57;;;;;;;12.23;2.35;;;;;;;2.38;63.52;99070.38;5031065;28;20587;-70
2022/11/01 09:39:23;;;;;;;1.50;1.40;;;;;;;2.40;63.39;99073.63;5043988;28;20041;-70
2022/11/01 09:41:52;;;;;;;2.17;1.77;;;;;;;2.42;63.39;99071.63;5050140;28;20122;-70
2022/11/01 09:44:22;;;;;;;2.20;1.63;;;;;;;2.53;63.34;99076.34;5032082;28;20047;-70
2022/11/01 09:46:51;;;;;;;4.05;2.35;;;;;;;2.60;63.01;99073.75;5033019;28;20071;-70
2022/11/01 09:49:24;;;;;;;4.05;1.58;;;;;;;2.48;63.06;99066.44;5031853;28;20049;-69
2022/11/01 09:51:50;;;;;;;2.67;1.50;;;;;;;2.36;62.89;99064.56;5034135;28;20388;-71
2022/11/01 09:54:19;;;;;;;4.72;1.60;;;;;;;2.35;63.03;99065.53;5049676;28;20146;-71
2022/11/01 09:57:17;;;;;;;7.13;2.90;;;;;;;2.44;63.09;99072.22;5032376;28;20052;-70
2022/11/01 10:00:03;;;;;;;4.80;2.22;;;;;;;2.54;62.20;99067.47;5027961;28;20053;-72
2022/11/01 10:02:49;;;;;;;3.72;1.88;;;;;;;2.45;62.41;99068.63;5050759;28;20036;-75
2022/11/01 10:05:36;;;;;;;4.65;1.67;;;;;;;2.46;62.81;99057.16;5049332;28;20053;-70
2022/11/01 10:08:42;;;;;;;2.35;2.10;;;;;;;2.46;63.14;99065.00;5034957;28;20039;-71
2022/11/01 10:11:11;;;;;;;5.03;2.10;;;;;;;2.38;63.40;99060.75;5012748;28;20044;-70
2022/11/01 10:13:54;;;;;;;1.80;1.67;;;;;;;2.49;63.36;99054.97;5046737;28;20382;-70
2022/11/01 10:16:40;;;;;;;5.15;1.80;;;;;;;2.54;63.11;99056.22;5055351;28;20505;-71
2022/11/01 10:19:17;;;;;;;1.58;1.42;;;;;;;2.67;62.92;99057.06;5055491;28;20098;-70
2022/11/01 10:21:59;;;;;;;2.72;1.35;;;;;;;2.55;63.05;99063.03;5039163;28;20059;-69
2022/11/01 10:24:39;;;;;;;6.78;1.52;;;;;;;2.47;62.31;99064.81;5019700;28;20051;-70
2022/11/01 10:27:14;;;;;;;1.65;1.38;;;;;;;2.56;62.44;99062.88;5034942;28;20064;-71
2022/11/01 10:30:14;;;;;;;3.05;2.17;;;;;;;2.63;62.75;99068.13;5013647;28;20049;-69
2022/11/01 10:32:54;;;;;;;2.63;1.60;;;;;;;2.64;62.32;99061.88;5055204;28;20044;-71
2022/11/01 10:35:36;;;;;;;9.82;2.05;;;;;;;2.67;62.09;99061.50;5037325;28;20505;-72
2022/11/01 10:38:20;;;;;;;4.32;1.55;;;;;;;2.75;61.72;99065.78;5055261;28;20133;-70
2022/11/01 10:41:00;;;;;;;4.85;2.90;;;;;;;2.63;62.00;99076.78;5071716;28;20052;-71
2022/11/01 10:43:26;;;;;;;;;;;;;;;2.60;61.89;99071.94;5053795;28;20072;-71
2022/11/01 10:45:55;;;;;;;7.00;2.70;;;;;;;2.54;62.62;99067.47;5019236;28;19975;-71
2022/11/01 10:48:35;;;;;;;5.45;3.33;;;;;;;2.56;62.50;99069.88;5019524;28;20032;-71
2022/11/01 10:51:05;;;;;;;8.60;3.88;;;;;;;2.44;62.28;99069.63;5053002;28;20135;-71
2022/11/01 10:53:39;;;;;;;4.97;3.40;;;;;;;2.40;62.49;99078.84;5036053;28;20036;-70
2022/11/01 10:56:11;;;;;;;8.77;3.85;;;;;;;2.39;62.51;99069.41;5052297;28;20513;-72
2022/11/01 10:58:59;;;;;;;7.30;1.70;;;;;;;2.42;62.44;99079.47;5052863;28;20074;-71
2022/11/01 11:01:27;;;;;;;2.65;1.35;;;;;;;2.33;62.13;99073.59;5070989;28;20051;-71
2022/11/01 11:03:54;;;;;;;4.13;1.83;;;;;;;2.33;62.14;99075.41;5053192;28;20102;-71
2022/11/01 11:06:20;;;;;;;2.97;1.75;;;;;;;2.31;62.03;99067.72;5070363;28;20045;-71
2022/11/01 11:08:50;;;;;;;5.68;3.58;;;;;;;2.28;62.79;99066.31;5019259;28;20046;-71
2022/11/01 11:11:18;;;;;;;2.65;1.73;;;;;;;2.41;61.99;99075.22;5053069;28;20121;-71
2022/11/01 11:13:49;;;;;;;5.82;3.28;;;;;;;2.46;61.89;99072.84;5035457;28;20037;-71
2022/11/01 11:16:38;;;;;;;5.03;2.88;;;;;;;2.54;62.02;99074.53;4997658;28;20045;-71
2022/11/01 11:19:07;;;;;;;5.30;1.83;;;;;;;2.48;62.61;99069.06;5035323;28;20041;-72
2022/11/01 11:21:33;;;;;;;1.77;1.60;;;;;;;2.52;62.29;99073.91;4996680;28;20049;-70
2022/11/01 11:24:00;;;;;;;1.65;1.50;;;;;;;2.45;62.39;99089.56;5016109;28;20083;-71
2022/11/01 11:26:26;;;;;;;2.33;1.40;;;;;;;2.49;62.53;99083.75;5033417;28;20187;-70
2022/11/01 11:28:53;;;;;;;1.55;1.02;;;;;;;2.39;62.74;99082.47;5034130;28;20435;-71
2022/11/01 11:31:23;;;;;;;2.30;1.10;;;;;;;2.30;62.84;99081.03;5050789;28;20041;-70
2022/11/01 11:33:52;;;;;;;2.00;1.48;;;;;;;2.30;62.02;99081.81;5033584;28;20036;-71
2022/11/01 11:36:28;;;;;;;2.85;1.58;;;;;;;2.41;62.25;99076.06;5048964;28;20502;-71
2022/11/01 11:38:54;;;;;;;4.05;1.40;;;;;;;2.36;62.44;99085.47;5051264;28;20506;-71
2022/11/01 11:41:32;;;;;;;2.28;1.05;;;;;;;2.40;61.80;99081.47;5052000;28;20051;-72
2022/11/01 11:43:58;;;;;;;3.00;1.45;;;;;;;2.41;62.04;99077.84;5050020;28;20498;-72
2022/11/01 11:46:25;;;;;;;3.88;1.33;;;;;;;2.39;62.48;99070.22;5049609;28;20158;-72
2022/11/01 11:48:52;;;;;;;1.27;1.00;;;;;;;2.39;61.89;99072.81;5051177;28;20501;-71
2022/11/01 11:51:19;;;;;;;3.13;1.45;;;;;;;2.45;62.15;99072.06;5016774;28;20351;-72
2022/11/01 11:54:08;;;;;;;2.58;1.02;;;;;;;2.37;61.96;99080.03;5032932;28;20075;-72
2022/11/01 11:56:36;;;;;;;1.23;1.13;;;;;;;2.38;62.11;99073.84;5017756;28;20048;-71
2022/11/01 11:59:05;;;;;;;4.35;1.60;;;;;;;2.51;62.11;99078.31;5001465;28;20086;-70